Time;durP1;ratioP1;P1;durP2;ratioP2;P2;SDS_P1;SDS_P2;PMS_P1;PMS_P2;Temp;Humidity;BMP_temperature;BMP_pressure;BME280_temperature;BME280_humidity;BME280_pressure;Samples;Min_cycle;Max_cycle;Signal;HPM_P1;HPM_P2
2023/09/14 00:00:51;;;;;;;19.73;12.48;;;;;;;;;;4983734;28;20053;-81
2023/09/14 00:03:18;;;;;;;17.73;13.05;;;;;;;;;;5014564;28;20049;-80
2023/09/14 00:05:44;;;;;;;18.40;12.68;;;;;;;;;;4981363;28;20111;-82
2023/09/14 00:08:11;;;;;;;33.70;15.80;;;;;;;;;;4996628;28;20050;-82
2023/09/14 00:10:37;;;;;;;41.75;16.10;;;;;;;;;;5019977;28;20042;-82
2023/09/14 00:13:03;;;;;;;23.42;15.70;;;;;;;;;;5015535;28;20096;-81
2023/09/14 00:15:29;;;;;;;29.38;16.80;;;;;;;;;;4997862;28;20042;-80
2023/09/14 00:17:55;;;;;;;25.70;16.58;;;;;;;;;;5023742;28;20084;-82
2023/09/14 00:20:26;;;;;;;36.58;17.98;;;;;;;;;;5007456;28;20517;-80
2023/09/14 00:22:52;;;;;;;30.63;17.45;;;;;;;;;;4983288;28;20045;-81
2023/09/14 00:25:18;;;;;;;37.58;18.52;;;;;;;;;;4997796;28;20052;-81
2023/09/14 00:27:44;;;;;;;30.85;17.30;;;;;;;;;;4983066;28;20041;-81
2023/09/14 00:30:10;;;;;;;26.52;18.30;;;;;;;;;;4987521;28;20042;-82
2023/09/14 00:33:00;;;;;;;29.17;17.88;;;;;;;;;;5001409;28;20143;-81
2023/09/14 00:35:51;;;;;;;31.33;15.20;;;;;;;;;;5005288;28;20141;-82
2023/09/14 00:38:18;;;;;;;27.75;18.10;;;;;;;;;;4976929;28;20100;-81
2023/09/14 00:40:43;;;;;;;26.98;18.33;;;;;;;;;;5012023;28;20054;-80
2023/09/14 00:43:10;;;;;;;33.92;19.35;;;;;;;;;;4975905;28;20125;-80
2023/09/14 00:45:36;;;;;;;34.70;19.80;;;;;;;;;;4975099;28;20542;-82
2023/09/14 00:48:02;;;;;;;41.85;20.15;;;;;;;;;;4963182;28;20549;-80
2023/09/14 00:50:31;;;;;;;39.45;19.60;;;;;;;;;;4998605;28;20050;-80
2023/09/14 00:52:57;;;;;;;31.60;18.40;;;;;;;;;;4978479;28;20048;-79
2023/09/14 00:55:23;;;;;;;33.25;18.30;;;;;;;;;;5009608;28;20045;-79
2023/09/14 00:57:49;;;;;;;36.92;18.90;;;;;;;;;;4976170;28;20054;-79
2023/09/14 01:00:16;;;;;;;27.30;16.48;;;;;;;;;;5009473;28;20042;-80
2023/09/14 01:02:42;;;;;;;27.25;15.93;;;;;;;;;;4993998;28;20544;-79
2023/09/14 01:05:08;;;;;;;28.88;16.48;;;;;;;;;;4994110;28;20042;-81
2023/09/14 01:07:34;;;;;;;32.25;17.50;;;;;;;;;;5011801;28;20451;-80
2023/09/14 01:10:00;;;;;;;28.00;17.17;;;;;;;;;;4993994;28;20084;-80
2023/09/14 01:12:26;;;;;;;32.08;16.35;;;;;;;;;;5010108;28;20524;-81
2023/09/14 01:14:51;;;;;;;24.65;14.82;;;;;;;;;;4977601;28;20099;-81
2023/09/14 01:17:21;;;;;;;26.67;16.10;;;;;;;;;;5011912;28;20046;-81
2023/09/14 01:20:07;;;;;;;27.05;16.20;;;;;;;;;;4995516;28;20096;-80
2023/09/14 01:22:32;;;;;;;29.38;16.45;;;;;;;;;;4998483;28;20081;-83
2023/09/14 01:25:03;;;;;;;31.80;16.77;;;;;;;;;;4980037;28;20053;-80
2023/09/14 01:27:30;;;;;;;28.45;15.73;;;;;;;;;;4994355;28;20073;-80
2023/09/14 01:29:56;;;;;;;27.30;15.48;;;;;;;;;;4996806;28;20092;-81
2023/09/14 01:32:22;;;;;;;35.08;17.17;;;;;;;;;;5001442;28;20062;-81
2023/09/14 01:34:48;;;;;;;25.15;15.95;;;;;;;;;;5022965;28;20065;-82
2023/09/14 01:37:14;;;;;;;32.67;17.27;;;;;;;;;;5003081;28;20145;-81
2023/09/14 01:39:40;;;;;;;24.75;16.10;;;;;;;;;;5006264;28;20038;-80
2023/09/14 01:42:06;;;;;;;27.95;16.52;;;;;;;;;;5001400;28;20103;-81
2023/09/14 01:44:31;;;;;;;35.63;19.50;;;;;;;;;;5016437;28;20038;-82
2023/09/14 01:46:57;;;;;;;33.38;19.63;;;;;;;;;;5014913;28;20049;-80
2023/09/14 01:49:23;;;;;;;44.30;20.33;;;;;;;;;;5003167;28;20038;-81
2023/09/14 01:51:49;;;;;;;37.88;20.45;;;;;;;;;;5005290;28;20034;-82
2023/09/14 01:54:14;;;;;;;37.90;20.67;;;;;;;;;;5005393;28;20102;-81
2023/09/14 01:56:41;;;;;;;30.60;18.65;;;;;;;;;;5017275;28;20046;-81
2023/09/14 01:59:07;;;;;;;36.13;19.02;;;;;;;;;;4996121;28;20118;-80
2023/09/14 02:01:33;;;;;;;32.55;19.65;;;;;;;;;;4994351;28;20089;-81
2023/09/14 02:03:58;;;;;;;33.40;20.40;;;;;;;;;;4995742;28;20052;-81
2023/09/14 02:06:24;;;;;;;32.22;18.92;;;;;;;;;;4985038;28;20073;-81
2023/09/14 02:08:50;;;;;;;32.42;19.83;;;;;;;;;;5016170;28;20420;-82
2023/09/14 02:11:16;;;;;;;32.80;20.08;;;;;;;;;;5000321;28;20038;-82
2023/09/14 02:13:42;;;;;;;37.78;20.52;;;;;;;;;;4987435;28;20050;-81
2023/09/14 02:16:08;;;;;;;30.05;19.75;;;;;;;;;;4987887;28;20053;-83
2023/09/14 02:18:34;;;;;;;30.30;19.38;;;;;;;;;;5021005;28;20050;-81
2023/09/14 02:20:59;;;;;;;32.35;19.42;;;;;;;;;;5003591;28;20038;-83
2023/09/14 02:23:25;;;;;;;41.65;21.05;;;;;;;;;;5004703;28;20137;-81
2023/09/14 02:25:51;;;;;;;24.80;17.92;;;;;;;;;;5003986;28;20042;-81
2023/09/14 02:28:19;;;;;;;22.55;17.15;;;;;;;;;;5020027;28;20632;-82
2023/09/14 02:30:45;;;;;;;36.25;18.58;;;;;;;;;;5000523;28;20052;-81
2023/09/14 02:33:10;;;;;;;25.02;18.40;;;;;;;;;;4995099;28;20065;-80
2023/09/14 02:35:36;;;;;;;19.58;15.93;;;;;;;;;;5029880;28;20046;-80
2023/09/14 02:38:05;;;;;;;20.77;15.40;;;;;;;;;;5026291;28;20049;-81
2023/09/14 02:40:31;;;;;;;28.58;16.23;;;;;;;;;;4998987;28;20042;-80
2023/09/14 02:42:57;;;;;;;17.33;15.38;;;;;;;;;;4998894;28;20045;-81
2023/09/14 02:45:23;;;;;;;18.50;14.93;;;;;;;;;;4984520;28;20111;-82
2023/09/14 02:47:49;;;;;;;17.17;14.95;;;;;;;;;;5015654;28;20577;-81
2023/09/14 02:50:15;;;;;;;18.90;14.95;;;;;;;;;;4979895;28;20395;-80
2023/09/14 02:52:41;;;;;;;24.13;16.95;;;;;;;;;;4996901;28;20169;-80
2023/09/14 02:55:07;;;;;;;19.67;15.07;;;;;;;;;;4980085;28;20136;-80
2023/09/14 02:57:33;;;;;;;18.15;15.05;;;;;;;;;;5013799;28;20061;-80
2023/09/14 02:59:59;;;;;;;32.38;17.33;;;;;;;;;;4999700;28;20115;-81
2023/09/14 03:02:26;;;;;;;21.83;17.90;;;;;;;;;;4983389;28;20046;-80
2023/09/14 03:04:52;;;;;;;20.90;17.92;;;;;;;;;;4979921;28;20041;-79
2023/09/14 03:07:17;;;;;;;17.63;14.90;;;;;;;;;;5011494;28;20048;-78
2023/09/14 03:09:44;;;;;;;29.50;21.55;;;;;;;;;;5008863;28;20507;-80
2023/09/14 03:12:10;;;;;;;22.17;18.15;;;;;;;;;;5007710;28;20037;-80
2023/09/14 03:14:36;;;;;;;22.10;17.45;;;;;;;;;;5000070;28;20533;-80
2023/09/14 03:17:02;;;;;;;27.38;18.17;;;;;;;;;;5012710;28;20080;-80
2023/09/14 03:19:28;;;;;;;26.05;17.92;;;;;;;;;;4996976;28;20061;-80
2023/09/14 03:21:54;;;;;;;33.65;18.42;;;;;;;;;;5014257;28;20176;-80
2023/09/14 03:24:20;;;;;;;23.15;16.88;;;;;;;;;;4986623;28;20046;-79
2023/09/14 03:26:46;;;;;;;25.55;17.33;;;;;;;;;;4964676;28;20073;-81
2023/09/14 03:29:12;;;;;;;19.77;14.98;;;;;;;;;;4993512;28;20395;-80
2023/09/14 03:31:38;;;;;;;21.15;15.35;;;;;;;;;;5014045;28;20108;-79
2023/09/14 03:34:07;;;;;;;30.73;18.23;;;;;;;;;;4995470;28;20042;-81
2023/09/14 03:36:33;;;;;;;26.55;15.80;;;;;;;;;;4994969;28;20065;-82
2023/09/14 03:38:59;;;;;;;21.15;16.33;;;;;;;;;;4996482;28;20065;-82
2023/09/14 03:41:31;;;;;;;21.95;14.40;;;;;;;;;;5012986;28;20536;-82
2023/09/14 03:43:57;;;;;;;20.45;13.85;;;;;;;;;;5013638;28;20034;-82
2023/09/14 03:46:23;;;;;;;16.33;13.30;;;;;;;;;;4996068;28;20041;-82
2023/09/14 03:48:48;;;;;;;19.95;13.88;;;;;;;;;;4979490;28;20045;-82
2023/09/14 03:51:14;;;;;;;17.80;13.30;;;;;;;;;;5012702;28;20464;-81
2023/09/14 03:53:41;;;;;;;20.67;13.82;;;;;;;;;;5011761;28;20125;-79
2023/09/14 03:56:07;;;;;;;15.80;13.75;;;;;;;;;;5012190;28;20041;-80
2023/09/14 03:58:33;;;;;;;22.05;14.02;;;;;;;;;;4978599;28;20042;-79
2023/09/14 04:00:59;;;;;;;16.80;13.10;;;;;;;;;;5011635;28;20513;-80
2023/09/14 04:03:26;;;;;;;18.08;13.32;;;;;;;;;;4994672;28;20049;-80
2023/09/14 04:05:51;;;;;;;30.83;13.82;;;;;;;;;;4996639;28;20069;-82
2023/09/14 04:08:18;;;;;;;26.05;17.13;;;;;;;;;;4996465;28;20124;-81
2023/09/14 04:10:43;;;;;;;26.48;13.05;;;;;;;;;;5015613;28;20467;-82
2023/09/14 04:13:32;;;;;;;30.58;14.55;;;;;;;;;;5000216;28;20050;-82
2023/09/14 04:16:05;;;;;;;42.55;15.68;;;;;;;;;;5002118;28;20049;-81
2023/09/14 04:18:36;;;;;;;57.17;19.00;;;;;;;;;;4983743;28;20495;-84
2023/09/14 04:21:02;;;;;;;61.08;17.58;;;;;;;;;;5000042;28;20040;-81
2023/09/14 04:23:28;;;;;;;39.60;14.82;;;;;;;;;;5011972;28;20125;-81
2023/09/14 04:25:55;;;;;;;50.17;15.60;;;;;;;;;;4995613;28;20050;-80
2023/09/14 04:28:21;;;;;;;65.40;17.92;;;;;;;;;;4978718;28;20046;-81
2023/09/14 04:30:57;;;;;;;84.75;17.13;;;;;;;;;;5011603;28;20053;-80
2023/09/14 04:33:23;;;;;;;55.47;16.13;;;;;;;;;;4994870;28;20049;-82
2023/09/14 04:35:49;;;;;;;58.80;15.40;;;;;;;;;;4997942;28;20042;-82
2023/09/14 04:38:15;;;;;;;59.75;15.02;;;;;;;;;;4981136;28;20049;-83
2023/09/14 04:43:28;;;;;;;45.28;14.80;;;;;;;;;;5123098;23;20346;-78
2023/09/14 04:48:43;;;;;;;29.70;17.92;;;;;;;;;;5035773;28;20076;-85
2023/09/14 04:51:11;;;;;;;44.00;16.45;;;;;;;;;;4991249;28;20588;-82
2023/09/14 04:53:38;;;;;;;34.00;16.25;;;;;;;;;;4992932;28;20101;-82
2023/09/14 04:56:04;;;;;;;42.20;17.33;;;;;;;;;;4999148;28;20046;-83
2023/09/14 04:58:29;;;;;;;39.72;18.98;;;;;;;;;;5012421;28;20052;-83
2023/09/14 05:00:55;;;;;;;34.38;16.95;;;;;;;;;;4964215;28;20041;-83
2023/09/14 05:03:22;;;;;;;36.60;18.65;;;;;;;;;;4991608;28;20038;-82
2023/09/14 05:05:53;;;;;;;30.63;16.15;;;;;;;;;;4971086;28;20408;-83
2023/09/14 05:08:19;;;;;;;43.80;16.95;;;;;;;;;;4995661;28;20830;-82
2023/09/14 05:10:47;;;;;;;42.90;16.52;;;;;;;;;;4997725;28;20037;-82
2023/09/14 05:13:13;;;;;;;52.85;16.85;;;;;;;;;;4982925;28;20041;-82
2023/09/14 05:15:40;;;;;;;52.15;16.17;;;;;;;;;;4991690;28;20402;-82
2023/09/14 05:18:06;;;;;;;37.40;15.95;;;;;;;;;;5005541;28;20049;-79
2023/09/14 05:20:32;;;;;;;38.50;15.85;;;;;;;;;;4977689;28;20196;-81
2023/09/14 05:22:57;;;;;;;38.90;15.63;;;;;;;;;;4995676;28;20133;-80
2023/09/14 05:25:27;;;;;;;35.70;16.05;;;;;;;;;;4973403;28;20048;-81
2023/09/14 05:27:53;;;;;;;33.22;14.25;;;;;;;;;;4999214;28;20417;-84
2023/09/14 05:30:22;;;;;;;44.05;15.85;;;;;;;;;;4987617;28;20046;-83
2023/09/14 05:32:49;;;;;;;46.85;15.27;;;;;;;;;;4987542;28;20042;-84
2023/09/14 05:35:15;;;;;;;55.08;14.30;;;;;;;;;;4995639;28;20518;-83
2023/09/14 05:37:41;;;;;;;49.60;14.93;;;;;;;;;;4981046;28;20510;-82
2023/09/14 05:40:09;;;;;;;43.97;14.65;;;;;;;;;;5034481;28;20097;-85
2023/09/14 05:42:41;;;;;;;46.72;14.93;;;;;;;;;;5018359;28;20096;-85
2023/09/14 05:45:08;;;;;;;51.58;15.13;;;;;;;;;;5017747;28;20018;-86
2023/09/14 05:47:34;;;;;;;41.08;15.07;;;;;;;;;;5019431;28;20042;-87
2023/09/14 05:50:01;;;;;;;34.92;14.15;;;;;;;;;;5001826;28;20039;-86
2023/09/14 05:52:27;;;;;;;49.20;14.10;;;;;;;;;;5020523;28;20061;-86
2023/09/14 05:54:53;;;;;;;44.30;14.88;;;;;;;;;;5018886;28;20080;-86
2023/09/14 05:57:22;;;;;;;45.05;13.52;;;;;;;;;;5002889;28;20067;-83
2023/09/14 05:59:47;;;;;;;51.88;15.07;;;;;;;;;;5018653;28;20026;-84
2023/09/14 06:02:14;;;;;;;41.83;12.00;;;;;;;;;;4989474;28;20023;-86
2023/09/14 06:04:40;;;;;;;43.53;11.98;;;;;;;;;;5006620;28;20069;-84
2023/09/14 06:07:06;;;;;;;35.22;12.05;;;;;;;;;;4986865;28;20031;-86
2023/09/14 06:09:32;;;;;;;33.70;11.68;;;;;;;;;;4994990;28;20058;-84
2023/09/14 06:12:01;;;;;;;33.85;11.35;;;;;;;;;;5011609;28;20066;-83
2023/09/14 06:14:27;;;;;;;22.92;10.02;;;;;;;;;;4991755;28;20034;-84
2023/09/14 06:16:57;;;;;;;33.42;10.30;;;;;;;;;;4994839;28;20050;-85
2023/09/14 06:19:23;;;;;;;37.83;10.18;;;;;;;;;;4996851;28;20034;-84
2023/09/14 06:21:49;;;;;;;21.30;9.85;;;;;;;;;;4967090;28;20033;-85
2023/09/14 06:24:15;;;;;;;22.35;9.57;;;;;;;;;;5018513;28;20019;-86
2023/09/14 06:26:41;;;;;;;15.75;7.82;;;;;;;;;;5019176;28;20094;-86
2023/09/14 06:43:12;;;;;;;19.67;11.05;;;;;;;;;;1374069;23;20300;-84
2023/09/14 06:45:38;;;;;;;21.55;10.82;;;;;;;;;;5015618;28;20045;-84
2023/09/14 06:48:04;;;;;;;9.52;5.97;;;;;;;;;;4985668;28;20040;-85
2023/09/14 06:50:30;;;;;;;9.88;7.30;;;;;;;;;;5028415;28;20042;-83
2023/09/14 06:52:56;;;;;;;12.70;7.72;;;;;;;;;;5001248;28;20067;-85
2023/09/14 06:55:22;;;;;;;9.27;7.38;;;;;;;;;;5033677;28;20061;-86
2023/09/14 06:57:48;;;;;;;13.93;7.53;;;;;;;;;;5267221;23;20130;-85
2023/09/14 07:00:15;;;;;;;11.20;7.15;;;;;;;;;;5019083;28;20022;-87
2023/09/14 07:13:58;;;;;;;20.02;6.90;;;;;;;;;;5541376;22;20046;-87
2023/09/14 19:54:51;;;;;;;7.65;6.40;;;;;;;;;;1449055;26;20066;-74
2023/09/14 19:57:20;;;;;;;6.38;5.60;;;;;;;;;;4986934;28;20097;-73
2023/09/14 19:59:49;;;;;;;6.20;5.68;;;;;;;;;;4971046;28;20104;-72
2023/09/14 20:02:15;;;;;;;10.35;7.55;;;;;;;;;;4989835;28;20605;-72
2023/09/14 20:04:41;;;;;;;7.20;6.50;;;;;;;;;;4990192;28;20574;-74
2023/09/14 20:07:08;;;;;;;7.90;6.72;;;;;;;;;;4973329;28;20557;-72
2023/09/14 20:09:34;;;;;;;8.27;6.60;;;;;;;;;;4988883;28;20030;-71
2023/09/14 20:12:27;;;;;;;9.27;6.95;;;;;;;;;;4973111;28;20088;-73
2023/09/14 20:15:28;;;;;;;5.95;5.35;;;;;;;;;;4989297;28;20128;-73
2023/09/14 20:17:59;;;;;;;6.63;6.03;;;;;;;;;;4976695;28;20046;-72
2023/09/14 20:20:25;;;;;;;7.50;6.60;;;;;;;;;;5010242;28;20065;-73
2023/09/14 20:22:52;;;;;;;10.45;7.18;;;;;;;;;;4998572;28;20060;-73
2023/09/14 20:25:18;;;;;;;7.93;6.93;;;;;;;;;;4941346;28;20050;-72
2023/09/14 20:27:46;;;;;;;6.97;6.38;;;;;;;;;;4988432;28;20038;-72
2023/09/14 20:30:37;;;;;;;7.60;6.47;;;;;;;;;;4933795;28;20121;-74
2023/09/14 20:33:03;;;;;;;6.90;6.30;;;;;;;;;;4922373;28;20047;-73
2023/09/14 20:35:35;;;;;;;6.47;5.88;;;;;;;;;;4921775;28;20097;-73
2023/09/14 20:38:01;;;;;;;5.70;5.20;;;;;;;;;;4907309;28;20106;-74
2023/09/14 20:40:27;;;;;;;7.00;6.40;;;;;;;;;;4931647;28;20046;-73
2023/09/14 20:42:53;;;;;;;6.30;5.70;;;;;;;;;;4953503;28;20047;-71
2023/09/14 20:45:22;;;;;;;7.22;6.22;;;;;;;;;;4985667;28;20038;-72
2023/09/14 20:47:51;;;;;;;9.10;6.55;;;;;;;;;;4934050;28;20058;-73
2023/09/14 20:50:42;;;;;;;7.97;6.45;;;;;;;;;;4990102;28;20042;-74
2023/09/14 20:53:07;;;;;;;;;;;;;;;;;;4970104;28;20164;-74
2023/09/14 20:55:38;;;;;;;7.28;5.80;;;;;;;;;;4992513;28;19963;-80
2023/09/14 20:58:30;;;;;;;7.38;6.50;;;;;;;;;;4965267;28;20084;-79
2023/09/14 21:00:56;;;;;;;6.85;6.22;;;;;;;;;;4926269;28;20502;-80
2023/09/14 21:03:22;;;;;;;8.52;7.78;;;;;;;;;;4942044;28;20042;-81
2023/09/14 21:05:48;;;;;;;8.20;6.97;;;;;;;;;;4941886;28;20141;-81
2023/09/14 21:08:14;;;;;;;7.13;6.53;;;;;;;;;;4941505;28;20140;-80
2023/09/14 21:10:40;;;;;;;12.85;7.63;;;;;;;;;;4941368;28;20038;-80
2023/09/14 21:13:07;;;;;;;11.63;7.63;;;;;;;;;;4973717;28;20154;-80
2023/09/14 21:15:33;;;;;;;13.90;9.73;;;;;;;;;;4941034;28;20045;-79
2023/09/14 21:18:01;;;;;;;28.25;16.50;;;;;;;;;;4941081;28;20112;-80
2023/09/14 21:20:27;;;;;;;11.93;7.95;;;;;;;;;;4941590;28;20506;-80
2023/09/14 21:22:53;;;;;;;9.00;8.10;;;;;;;;;;4974004;28;20046;-80
2023/09/14 21:25:19;;;;;;;25.67;20.23;;;;;;;;;;4957753;28;20041;-80
2023/09/14 21:27:45;;;;;;;14.55;10.18;;;;;;;;;;4941499;28;20057;-80
2023/09/14 21:30:12;;;;;;;11.77;9.30;;;;;;;;;;4923697;28;20043;-79
2023/09/14 21:32:38;;;;;;;23.15;15.10;;;;;;;;;;4907616;28;20046;-80
2023/09/14 21:35:05;;;;;;;26.38;21.80;;;;;;;;;;4926977;28;20066;-80
2023/09/14 21:37:31;;;;;;;12.82;11.63;;;;;;;;;;4964080;28;20761;-80
2023/09/14 21:39:57;;;;;;;12.73;10.30;;;;;;;;;;4947261;28;20050;-80
2023/09/14 21:42:49;;;;;;;24.98;16.73;;;;;;;;;;4942996;28;20047;-80
2023/09/14 21:45:40;;;;;;;;;;;;;;;;;;4942323;28;20051;-79
2023/09/14 21:48:06;;;;;;;12.50;8.10;;;;;;;;;;4950938;28;19914;-80
2023/09/14 21:50:32;;;;;;;10.85;7.63;;;;;;;;;;4906693;28;20043;-80
2023/09/14 21:52:58;;;;;;;9.77;8.77;;;;;;;;;;4922551;28;20053;-80
2023/09/14 21:55:24;;;;;;;10.65;9.55;;;;;;;;;;4924091;29;20055;-80
2023/09/14 21:57:50;;;;;;;9.38;8.35;;;;;;;;;;4903559;29;20061;-80
2023/09/14 22:00:21;;;;;;;15.52;9.35;;;;;;;;;;4903764;29;20562;-81
2023/09/14 22:02:47;;;;;;;;;;;;;;;;;;4936025;29;20051;-79
2023/09/14 22:05:13;;;;;;;10.63;8.40;;;;;;;;;;4934791;29;19921;-80
2023/09/14 22:07:43;;;;;;;9.23;8.35;;;;;;;;;;4920119;29;20098;-80
2023/09/14 22:10:09;;;;;;;15.07;8.25;;;;;;;;;;4904168;29;20039;-81
2023/09/14 22:12:36;;;;;;;11.95;8.40;;;;;;;;;;4903593;29;20047;-79
2023/09/14 22:15:05;;;;;;;9.93;7.43;;;;;;;;;;4903658;29;20566;-80
2023/09/14 22:17:37;;;;;;;8.95;8.00;;;;;;;;;;4903635;29;20047;-79
2023/09/14 22:20:16;;;;;;;10.30;6.45;;;;;;;;;;4934634;28;20528;-79
2023/09/14 22:22:42;;;;;;;8.02;7.30;;;;;;;;;;4904581;29;20050;-79
2023/09/14 22:25:08;;;;;;;8.77;7.82;;;;;;;;;;4903388;29;20503;-79
2023/09/14 22:27:34;;;;;;;8.43;7.72;;;;;;;;;;4919405;29;20435;-80
2023/09/14 22:30:00;;;;;;;8.68;7.68;;;;;;;;;;4907225;29;20043;-81
2023/09/14 22:32:26;;;;;;;12.57;7.40;;;;;;;;;;4922080;29;20043;-81
2023/09/14 22:34:53;;;;;;;11.77;8.27;;;;;;;;;;4912248;29;20055;-80
2023/09/14 22:37:19;;;;;;;11.82;8.35;;;;;;;;;;4946558;29;20055;-79
2023/09/14 22:39:45;;;;;;;14.40;9.20;;;;;;;;;;4911696;29;20055;-79
2023/09/14 22:42:12;;;;;;;11.93;8.40;;;;;;;;;;4929004;29;20401;-79
2023/09/14 22:44:38;;;;;;;9.05;8.07;;;;;;;;;;4909901;29;20043;-79
2023/09/14 22:47:04;;;;;;;11.38;9.57;;;;;;;;;;4905556;29;20484;-80
2023/09/14 22:49:32;;;;;;;10.85;9.75;;;;;;;;;;4922648;29;20051;-80
2023/09/14 22:52:07;;;;;;;17.00;10.90;;;;;;;;;;4939182;29;20051;-80
2023/09/14 22:54:33;;;;;;;11.70;9.82;;;;;;;;;;4941021;28;20043;-78
2023/09/14 22:56:59;;;;;;;15.65;11.05;;;;;;;;;;4993976;28;20038;-80
2023/09/14 22:59:27;;;;;;;13.75;11.02;;;;;;;;;;4944065;28;20055;-80
2023/09/14 23:01:56;;;;;;;14.77;10.68;;;;;;;;;;4961620;28;20216;-81
2023/09/14 23:04:22;;;;;;;10.02;7.95;;;;;;;;;;4935832;28;20137;-80
2023/09/14 23:06:48;;;;;;;9.43;8.15;;;;;;;;;;4927577;28;20130;-80
2023/09/14 23:09:14;;;;;;;10.05;8.48;;;;;;;;;;4944461;28;20042;-79
2023/09/14 23:11:43;;;;;;;12.27;8.45;;;;;;;;;;4945738;28;20510;-82
2023/09/14 23:14:10;;;;;;;12.90;7.82;;;;;;;;;;4948224;28;20574;-81
2023/09/14 23:16:40;;;;;;;10.85;8.75;;;;;;;;;;4945915;28;20038;-82
2023/09/14 23:19:11;;;;;;;11.20;8.57;;;;;;;;;;4963869;28;20066;-81
2023/09/14 23:21:50;;;;;;;8.85;7.95;;;;;;;;;;4963070;28;20046;-80
2023/09/14 23:24:17;;;;;;;14.77;8.88;;;;;;;;;;4944343;28;20039;-80
2023/09/14 23:26:43;;;;;;;10.32;9.32;;;;;;;;;;4943055;28;20064;-80
2023/09/14 23:29:10;;;;;;;13.05;9.30;;;;;;;;;;4960136;28;20038;-80
2023/09/14 23:31:42;;;;;;;13.43;12.10;;;;;;;;;;4943832;28;20123;-80
2023/09/14 23:34:11;;;;;;;10.65;9.75;;;;;;;;;;4944040;28;20049;-79
2023/09/14 23:36:47;;;;;;;15.48;10.70;;;;;;;;;;4943216;28;20046;-79
2023/09/14 23:39:18;;;;;;;12.80;11.48;;;;;;;;;;4959763;28;20053;-79
2023/09/14 23:41:44;;;;;;;10.63;9.48;;;;;;;;;;4943442;28;20043;-80
2023/09/14 23:44:11;;;;;;;10.55;7.47;;;;;;;;;;4940740;28;20045;-80
2023/09/14 23:46:41;;;;;;;11.77;8.48;;;;;;;;;;4918860;28;20041;-81
2023/09/14 23:49:08;;;;;;;12.13;8.38;;;;;;;;;;4925299;28;20613;-80
2023/09/14 23:51:37;;;;;;;8.63;7.75;;;;;;;;;;4924215;28;20499;-79
2023/09/14 23:54:04;;;;;;;8.40;7.70;;;;;;;;;;4924559;28;20038;-80
2023/09/14 23:56:31;;;;;;;11.50;8.35;;;;;;;;;;4967582;28;20474;-80
2023/09/14 23:58:57;;;;;;;10.35;6.40;;;;;;;;;;4940255;28;20093;-79
